createdAt,value
2022-11-22T00:00:46.134Z,98873.38
2022-11-22T00:01:49.176Z,98874.22
2022-11-22T00:02:51.758Z,98866.91
2022-11-22T00:03:53.982Z,98870.44
2022-11-22T00:04:56.189Z,98875.66
2022-11-22T00:05:58.380Z,98869.38
2022-11-22T00:07:00.660Z,98865.63
2022-11-22T00:08:03.997Z,98867.28
2022-11-22T00:09:06.235Z,98860.19
2022-11-22T00:10:12.929Z,98859.97
2022-11-22T00:11:15.120Z,98863.53
2022-11-22T00:12:17.356Z,98858.91
2022-11-22T00:13:20.087Z,98856.81
2022-11-22T00:14:22.438Z,98855.16
2022-11-22T00:15:24.687Z,98846.16
2022-11-22T00:16:26.889Z,98843.25
2022-11-22T00:17:29.053Z,98836.75
2022-11-22T00:18:31.556Z,98843.25
2022-11-22T00:19:35.640Z,98845.72
2022-11-22T00:20:40.254Z,98843.84
2022-11-22T00:21:42.487Z,98844.69
2022-11-22T00:22:45.299Z,98843.00
2022-11-22T00:23:47.533Z,98834.88
2022-11-22T00:24:52.029Z,98831.13
2022-11-22T00:25:54.297Z,98826.72
2022-11-22T00:26:56.499Z,98827.78
2022-11-22T00:27:58.674Z,98825.88
2022-11-22T00:29:00.904Z,98828.59
2022-11-22T00:30:03.481Z,98824.03
2022-11-22T00:31:05.749Z,98821.31
2022-11-22T00:32:08.073Z,98821.53
2022-11-22T00:33:10.297Z,98824.25
2022-11-22T00:34:12.467Z,98809.84
2022-11-22T00:35:17.041Z,98818.81
2022-11-22T00:36:19.285Z,98810.06
2022-11-22T00:37:21.527Z,98814.69
2022-11-22T00:38:23.717Z,98815.72
2022-11-22T00:39:28.410Z,98810.53
2022-11-22T00:40:30.774Z,98808.03
2022-11-22T00:41:33.037Z,98804.50
2022-11-22T00:42:35.216Z,98805.31
2022-11-22T00:43:37.456Z,98803.88
2022-11-22T00:44:39.705Z,98804.72
2022-11-22T00:45:42.100Z,98806.59
2022-11-22T00:46:44.354Z,98805.78
2022-11-22T00:47:46.639Z,98806.81
2022-11-22T00:48:48.802Z,98816.84
2022-11-22T00:49:51.016Z,98816.84
2022-11-22T00:50:53.344Z,98816.25
2022-11-22T00:51:55.669Z,98816.25
2022-11-22T00:52:57.871Z,98817.31
2022-11-22T00:54:00.104Z,98819.19
2022-11-22T00:55:02.353Z,98825.66
2022-11-22T00:56:05.995Z,98826.50
2022-11-22T00:57:08.266Z,98829.44
2022-11-22T00:58:12.999Z,98833.22
2022-11-22T00:59:15.273Z,98831.31
2022-11-22T01:00:17.833Z,98836.75
2022-11-22T01:01:20.119Z,98835.06
2022-11-22T01:02:22.428Z,98836.97
2022-11-22T01:03:24.793Z,98831.78
2022-11-22T01:04:27.014Z,98830.34
2022-11-22T01:05:29.310Z,98834.91
2022-11-22T01:06:31.590Z,98834.09
2022-11-22T01:07:33.804Z,98834.09
2022-11-22T01:08:36.089Z,98833.50
2022-11-22T01:09:38.317Z,98846.47
2022-11-22T01:10:40.610Z,98834.75
2022-11-22T01:11:44.710Z,98828.53
2022-11-22T01:12:46.900Z,98827.91
2022-11-22T01:13:49.328Z,98830.41
2022-11-22T01:14:51.587Z,98827.91
2022-11-22T01:15:58.361Z,98828.13
2022-11-22T01:17:00.623Z,98827.53
2022-11-22T01:18:02.842Z,98822.13
2022-11-22T01:19:05.116Z,98830.50
2022-11-22T01:20:08.307Z,98825.06
2022-11-22T01:21:10.519Z,98817.34
2022-11-22T01:22:12.803Z,98816.53
2022-11-22T01:23:15.104Z,98811.94
2022-11-22T01:24:17.557Z,98811.34
2022-11-22T01:25:19.783Z,98816.78
2022-11-22T01:26:22.048Z,98811.78
2022-11-22T01:27:24.679Z,98813.44
2022-11-22T01:28:27.348Z,98806.59
2022-11-22T01:29:29.920Z,98805.75
2022-11-22T01:30:32.490Z,98799.72
2022-11-22T01:31:34.716Z,98799.72
2022-11-22T01:32:36.998Z,98805.16
2022-11-22T01:33:39.168Z,98807.25
2022-11-22T01:34:41.390Z,98799.09
2022-11-22T01:35:43.599Z,98803.72
2022-11-22T01:36:45.806Z,98790.38
2022-11-22T01:37:47.995Z,98796.84
2022-11-22T01:38:50.285Z,98793.31
2022-11-22T01:39:52.566Z,98793.31
2022-11-22T01:40:54.836Z,98793.31
2022-11-22T01:41:57.121Z,98788.94
2022-11-22T01:43:01.272Z,98797.31
2022-11-22T01:44:28.159Z,98795.66
2022-11-22T01:45:30.408Z,98797.53
2022-11-22T01:46:40.304Z,98800.44
2022-11-22T01:47:42.583Z,98801.53
2022-11-22T01:48:58.091Z,98796.09
2022-11-22T01:50:05.541Z,98794.66
2022-11-22T01:51:17.402Z,98806.31
2022-11-22T01:52:22.056Z,98800.28
2022-11-22T01:53:37.138Z,98800.28
2022-11-22T01:54:42.961Z,98801.38
2022-11-22T01:55:45.661Z,98805.94
2022-11-22T01:56:52.739Z,98806.78
2022-11-22T01:57:57.188Z,98806.16
2022-11-22T01:59:07.211Z,98810.78
2022-11-22T02:00:16.333Z,98802.84
2022-11-22T02:01:22.903Z,98802.84
2022-11-22T02:02:25.762Z,98802.84
2022-11-22T02:03:29.824Z,98798.50
2022-11-22T02:04:33.056Z,98799.75
2022-11-22T02:05:36.130Z,98807.66
2022-11-22T02:06:44.705Z,98804.09
2022-11-22T02:07:55.204Z,98799.53
2022-11-22T02:09:03.699Z,98806.00
2022-11-22T02:10:06.193Z,98807.91
2022-11-22T02:11:10.053Z,98806.22
2022-11-22T02:12:13.422Z,98807.03
2022-11-22T02:13:18.697Z,98799.97
2022-11-22T02:14:26.413Z,98802.66
2022-11-22T02:15:29.132Z,98795.63
2022-11-22T02:16:31.791Z,98789.13
2022-11-22T02:17:34.363Z,98794.78
2022-11-22T02:18:37.747Z,98791.25
2022-11-22T02:19:43.593Z,98793.09
2022-11-22T02:20:46.044Z,98790.63
2022-11-22T02:21:55.216Z,98784.38
2022-11-22T02:23:21.073Z,98783.34
2022-11-22T02:24:28.410Z,98775.41
2022-11-22T02:25:43.117Z,98778.13
2022-11-22T02:26:46.099Z,98779.19
2022-11-22T02:27:49.744Z,98775.63
2022-11-22T02:28:52.933Z,98778.34
2022-11-22T02:29:55.158Z,98784.00
2022-11-22T02:30:57.349Z,98774.19
2022-11-22T02:31:59.548Z,98773.38
2022-11-22T02:33:01.878Z,98775.03
2022-11-22T02:34:04.070Z,98772.56
2022-11-22T02:35:17.067Z,98778.81
2022-11-22T02:36:19.378Z,98771.94
2022-11-22T02:37:26.636Z,98772.75
2022-11-22T02:38:35.251Z,98771.94
2022-11-22T02:39:38.290Z,98769.47
2022-11-22T02:40:45.659Z,98776.53
2022-11-22T02:41:50.239Z,98778.41
2022-11-22T02:42:58.072Z,98774.88
2022-11-22T02:44:00.368Z,98766.75
2022-11-22T02:45:02.656Z,98771.31
2022-11-22T02:46:10.720Z,98771.31
2022-11-22T02:47:12.953Z,98768.84
2022-11-22T02:48:17.289Z,98772.16
2022-11-22T02:49:25.130Z,98766.97
2022-11-22T02:50:27.281Z,98765.09
2022-11-22T02:51:29.494Z,98766.75
2022-11-22T02:52:31.719Z,98757.78
2022-11-22T02:53:34.109Z,98752.34
2022-11-22T02:54:36.330Z,98754.25
2022-11-22T02:55:39.682Z,98748.81
2022-11-22T02:56:42.047Z,98740.69
2022-11-22T02:57:44.236Z,98754.25
2022-11-22T02:58:46.468Z,98749.88
2022-11-22T02:59:48.663Z,98749.88
2022-11-22T03:00:50.929Z,98750.72
2022-11-22T03:01:58.675Z,98744.44
2022-11-22T03:03:04.217Z,98748.00
2022-11-22T03:04:08.963Z,98743.41
2022-11-22T03:05:11.235Z,98742.59
2022-11-22T03:06:13.475Z,98751.53
2022-11-22T03:07:17.387Z,98746.13
2022-11-22T03:08:19.708Z,98752.34
2022-11-22T03:09:23.350Z,98749.66
2022-11-22T03:10:25.590Z,98751.31
2022-11-22T03:11:27.760Z,98757.56
2022-11-22T03:12:29.991Z,98751.31
2022-11-22T03:13:32.160Z,98755.69
2022-11-22T03:14:34.581Z,98760.06
2022-11-22T03:15:36.853Z,98764.63
2022-11-22T03:16:39.021Z,98752.75
2022-11-22T03:17:41.289Z,98752.75
2022-11-22T03:18:43.449Z,98764.22
2022-11-22T03:19:45.695Z,98752.53
2022-11-22T03:20:47.898Z,98759.59
2022-11-22T03:21:50.377Z,98761.25
2022-11-22T03:22:52.645Z,98759.59
2022-11-22T03:23:55.064Z,98761.25
2022-11-22T03:24:57.317Z,98748.53
2022-11-22T03:25:59.655Z,98760.44
2022-11-22T03:27:01.874Z,98762.09
2022-11-22T03:28:04.250Z,98762.09
2022-11-22T03:29:06.607Z,98757.50
2022-11-22T03:30:09.167Z,98760.22
2022-11-22T03:31:11.357Z,98759.16
2022-11-22T03:32:13.654Z,98753.72
2022-11-22T03:33:16.035Z,98751.25
2022-11-22T03:34:18.324Z,98748.31
2022-11-22T03:35:20.496Z,98746.44
2022-11-22T03:36:23.179Z,98752.69
2022-11-22T03:37:25.594Z,98746.44
2022-11-22T03:38:28.762Z,98749.97
2022-11-22T03:39:33.528Z,98747.25
2022-11-22T03:40:35.799Z,98745.59
2022-11-22T03:41:38.118Z,98746.44
2022-11-22T03:42:40.359Z,98741.84
2022-11-22T03:43:42.516Z,98743.72
2022-11-22T03:44:44.678Z,98741.03
2022-11-22T03:45:47.610Z,98738.09
2022-11-22T03:46:49.890Z,98739.13
2022-11-22T03:47:52.111Z,98739.13
2022-11-22T03:48:54.291Z,98731.63
2022-11-22T03:49:56.491Z,98733.72
2022-11-22T03:51:06.460Z,98732.66
2022-11-22T03:52:12.086Z,98732.91
2022-11-22T03:53:14.654Z,98721.81
2022-11-22T03:54:16.927Z,98734.31
2022-11-22T03:55:19.233Z,98734.31
2022-11-22T03:56:21.414Z,98734.09
2022-11-22T03:57:23.590Z,98736.56
2022-11-22T03:58:25.945Z,98726.78
2022-11-22T03:59:28.539Z,98728.44
2022-11-22T04:00:31.649Z,98729.28
2022-11-22T04:01:33.885Z,98727.41
2022-11-22T04:02:36.116Z,98732.59
2022-11-22T04:03:38.326Z,98730.72
2022-11-22T04:04:40.562Z,98733.44
2022-11-22T04:05:44.390Z,98726.13
2022-11-22T04:06:46.592Z,98719.66
2022-11-22T04:07:50.056Z,98716.94
2022-11-22T04:08:55.079Z,98716.72
2022-11-22T04:09:57.317Z,98719.41
2022-11-22T04:10:59.526Z,98721.09
2022-11-22T04:12:01.709Z,98723.56
2022-11-22T04:13:03.920Z,98711.91
2022-11-22T04:14:24.734Z,98716.25
2022-11-22T04:15:27.351Z,98712.50
2022-11-22T04:16:29.549Z,98719.59
2022-11-22T04:17:43.477Z,98715.81
2022-11-22T04:18:45.649Z,98713.94
2022-11-22T04:20:10.154Z,98710.97
2022-11-22T04:21:30.866Z,98712.66
2022-11-22T04:22:33.067Z,98708.88
2022-11-22T04:23:35.289Z,98703.25
2022-11-22T04:24:57.666Z,98699.72
2022-11-22T04:25:59.832Z,98699.72
2022-11-22T04:27:02.029Z,98701.34
2022-11-22T04:28:05.494Z,98692.38
2022-11-22T04:29:10.273Z,98694.88
2022-11-22T04:30:16.029Z,98704.66
2022-11-22T04:31:40.904Z,98697.16
2022-11-22T04:32:45.800Z,98697.16
2022-11-22T04:33:48.032Z,98695.88
2022-11-22T04:34:50.209Z,98682.50
2022-11-22T04:35:53.454Z,98691.25
2022-11-22T04:36:55.703Z,98692.94
2022-11-22T04:37:58.775Z,98689.16
2022-11-22T04:39:00.945Z,98684.56
2022-11-22T04:40:04.435Z,98691.66
2022-11-22T04:41:06.684Z,98689.75
2022-11-22T04:42:28.366Z,98690.59
2022-11-22T04:43:49.309Z,98693.06
2022-11-22T04:44:51.851Z,98696.59
2022-11-22T04:45:54.085Z,98695.31
2022-11-22T04:46:56.422Z,98692.59
2022-11-22T04:48:01.588Z,98695.94
2022-11-22T04:49:03.979Z,98698.66
2022-11-22T04:50:28.319Z,98697.59
2022-11-22T04:51:49.454Z,98695.69
2022-11-22T04:52:55.842Z,98691.09
2022-11-22T04:53:58.174Z,98685.44
2022-11-22T04:55:00.383Z,98681.91
2022-11-22T04:56:02.612Z,98674.59
2022-11-22T04:57:04.837Z,98673.53
2022-11-22T04:58:07.206Z,98669.78
2022-11-22T04:59:09.410Z,98670.00
2022-11-22T05:00:12.139Z,98674.38
2022-11-22T05:01:14.561Z,98665.16
2022-11-22T05:02:16.840Z,98666.84
2022-11-22T05:03:19.156Z,98669.31
2022-11-22T05:04:21.357Z,98663.88
2022-11-22T05:05:25.386Z,98662.84
2022-11-22T05:06:27.626Z,98663.69
2022-11-22T05:07:29.920Z,98664.50
2022-11-22T05:08:32.264Z,98663.69
2022-11-22T05:09:34.574Z,98669.69
2022-11-22T05:10:56.076Z,98667.81
2022-11-22T05:11:58.449Z,98659.69
2022-11-22T05:13:01.496Z,98663.22
2022-11-22T05:14:04.455Z,98654.84
2022-11-22T05:15:07.110Z,98651.31
2022-11-22T05:16:12.070Z,98652.97
2022-11-22T05:17:14.308Z,98652.75
2022-11-22T05:18:16.651Z,98654.59
2022-11-22T05:19:18.873Z,98651.69
2022-11-22T05:20:21.117Z,98656.03
2022-11-22T05:21:23.459Z,98661.25
2022-11-22T05:22:47.390Z,98660.41
2022-11-22T05:23:55.208Z,98659.97
2022-11-22T05:24:57.476Z,98661.59
2022-11-22T05:26:00.023Z,98665.16
2022-11-22T05:27:02.469Z,98660.53
2022-11-22T05:28:04.845Z,98670.34
2022-11-22T05:29:09.862Z,98669.88
2022-11-22T05:30:12.420Z,98678.00
2022-11-22T05:31:17.884Z,98678.63
2022-11-22T05:32:20.197Z,98679.44
2022-11-22T05:33:22.951Z,98676.50
2022-11-22T05:34:25.224Z,98680.88
2022-11-22T05:35:27.653Z,98683.34
2022-11-22T05:36:33.075Z,98681.47
2022-11-22T05:37:35.300Z,98680.44
2022-11-22T05:38:38.407Z,98689.38
2022-11-22T05:39:40.605Z,98688.91
2022-11-22T05:40:43.234Z,98690.56
2022-11-22T05:41:56.121Z,98685.75
2022-11-22T05:42:59.419Z,98691.19
2022-11-22T05:44:01.726Z,98682.81
2022-11-22T05:45:04.600Z,98687.19
2022-11-22T05:46:24.364Z,98678.81
2022-11-22T05:47:26.889Z,98683.38
2022-11-22T05:48:29.140Z,98681.03
2022-11-22T05:49:31.969Z,98675.63
2022-11-22T05:50:35.606Z,98677.88
2022-11-22T05:51:37.833Z,98680.13
2022-11-22T05:52:40.094Z,98684.28
2022-11-22T05:53:43.715Z,98681.09
2022-11-22T05:54:45.930Z,98678.16
2022-11-22T05:55:48.236Z,98678.50
2022-11-22T05:56:50.505Z,98676.41
2022-11-22T05:57:52.705Z,98681.34
2022-11-22T05:58:54.972Z,98681.72
2022-11-22T05:59:57.230Z,98683.97
2022-11-22T06:01:16.702Z,98684.56
2022-11-22T06:02:19.008Z,98688.47
2022-11-22T06:03:21.245Z,98688.47
2022-11-22T06:04:23.586Z,98690.72
2022-11-22T06:05:27.426Z,98689.44
2022-11-22T06:06:29.693Z,98690.84
2022-11-22T06:07:31.979Z,98695.81
2022-11-22T06:08:36.934Z,98691.81
2022-11-22T06:09:39.226Z,98693.22
2022-11-22T06:10:41.423Z,98694.88
2022-11-22T06:11:43.644Z,98694.66
2022-11-22T06:12:45.894Z,98699.03
2022-11-22T06:13:51.529Z,98701.25
2022-11-22T06:14:53.747Z,98706.47
2022-11-22T06:16:00.157Z,98712.50
2022-11-22T06:17:02.566Z,98712.25
2022-11-22T06:18:04.845Z,98719.94
2022-11-22T06:19:07.176Z,98712.38
2022-11-22T06:20:12.437Z,98722.41
2022-11-22T06:21:17.503Z,98728.22
2022-11-22T06:22:19.705Z,98719.81
2022-11-22T06:23:21.878Z,98718.75
2022-11-22T06:24:24.067Z,98722.91
2022-11-22T06:25:26.349Z,98727.03
2022-11-22T06:26:28.557Z,98724.31
2022-11-22T06:27:30.770Z,98722.22
2022-11-22T06:28:34.676Z,98724.69
2022-11-22T06:29:36.843Z,98723.38
2022-11-22T06:30:39.034Z,98728.00
2022-11-22T06:31:41.232Z,98728.34
2022-11-22T06:32:43.444Z,98731.66
2022-11-22T06:33:45.906Z,98732.47
2022-11-22T06:34:48.115Z,98732.22
2022-11-22T06:35:50.283Z,98734.75
2022-11-22T06:36:52.480Z,98736.97
2022-11-22T06:38:00.364Z,98727.78
2022-11-22T06:39:03.927Z,98729.19
2022-11-22T06:40:08.940Z,98725.63
2022-11-22T06:41:13.825Z,98728.69
2022-11-22T06:42:16.012Z,98730.38
2022-11-22T06:43:18.258Z,98727.66
2022-11-22T06:44:20.461Z,98730.13
2022-11-22T06:45:22.831Z,98731.78
2022-11-22T06:46:27.115Z,98733.19
2022-11-22T06:47:29.314Z,98727.75
2022-11-22T06:48:34.248Z,98724.56
2022-11-22T06:49:36.653Z,98734.13
2022-11-22T06:50:38.816Z,98728.69
2022-11-22T06:51:41.057Z,98733.88
2022-11-22T06:52:43.239Z,98743.72
2022-11-22T06:53:47.735Z,98745.38
2022-11-22T06:54:50.647Z,98735.31
2022-11-22T06:55:58.195Z,98744.06
2022-11-22T06:57:03.464Z,98742.78
2022-11-22T06:58:05.669Z,98747.16
2022-11-22T06:59:08.081Z,98748.56
2022-11-22T07:00:10.937Z,98754.81
2022-11-22T07:01:23.659Z,98752.72
2022-11-22T07:02:25.927Z,98760.38
2022-11-22T07:03:28.305Z,98759.31
2022-11-22T07:04:30.504Z,98750.31
2022-11-22T07:05:34.190Z,98749.00
2022-11-22T07:06:39.026Z,98747.13
2022-11-22T07:07:41.292Z,98746.06
2022-11-22T07:08:44.128Z,98752.94
2022-11-22T07:09:53.480Z,98756.47
2022-11-22T07:11:02.790Z,98754.09
2022-11-22T07:12:05.281Z,98756.84
2022-11-22T07:13:07.481Z,98757.66
2022-11-22T07:14:09.833Z,98759.56
2022-11-22T07:15:12.033Z,98749.47
2022-11-22T07:16:17.196Z,98762.03
2022-11-22T07:17:19.417Z,98766.16
2022-11-22T07:18:21.761Z,98761.31
2022-11-22T07:19:24.003Z,98764.84
2022-11-22T07:20:26.197Z,98774.44
2022-11-22T07:21:28.579Z,98772.31
2022-11-22T07:22:30.766Z,98773.13
2022-11-22T07:23:33.236Z,98772.88
2022-11-22T07:24:35.416Z,98771.84
2022-11-22T07:25:37.575Z,98768.88
2022-11-22T07:26:39.819Z,98765.09
2022-11-22T07:27:41.991Z,98764.03
2022-11-22T07:28:45.251Z,98770.88
2022-11-22T07:29:47.489Z,98768.16
2022-11-22T07:30:51.957Z,98768.72
2022-11-22T07:31:54.163Z,98759.75
2022-11-22T07:32:56.309Z,98762.22
2022-11-22T07:33:58.995Z,98759.25
2022-11-22T07:35:01.154Z,98760.09
2022-11-22T07:36:29.668Z,98761.72
2022-11-22T07:37:32.496Z,98764.00
2022-11-22T07:38:35.200Z,98770.25
2022-11-22T07:39:37.444Z,98774.63
2022-11-22T07:40:39.676Z,98766.22
2022-11-22T07:41:41.901Z,98772.53
2022-11-22T07:42:44.111Z,98772.28
2022-11-22T07:43:47.561Z,98780.19
2022-11-22T07:44:53.029Z,98785.63
2022-11-22T07:46:02.609Z,98778.88
2022-11-22T07:47:05.485Z,98779.69
2022-11-22T07:48:07.819Z,98778.03
2022-11-22T07:49:10.079Z,98791.19
2022-11-22T07:50:12.932Z,98783.84
2022-11-22T07:51:15.636Z,98796.38
2022-11-22T07:52:17.828Z,98794.25
2022-11-22T07:53:20.413Z,98791.28
2022-11-22T07:54:22.664Z,98792.13
2022-11-22T07:55:27.002Z,98790.22
2022-11-22T07:56:29.244Z,98797.31
2022-11-22T07:57:31.487Z,98797.09
2022-11-22T07:58:34.694Z,98794.13
2022-11-22T07:59:36.864Z,98795.78
2022-11-22T08:00:39.095Z,98791.16
2022-11-22T08:01:41.616Z,98794.69
2022-11-22T08:02:44.803Z,98792.81
2022-11-22T08:03:47.535Z,98793.63
2022-11-22T08:04:49.886Z,98793.38
2022-11-22T08:05:59.343Z,98790.19
2022-11-22T08:07:01.650Z,98782.25
2022-11-22T08:08:04.054Z,98779.06
2022-11-22T08:09:06.299Z,98782.84
2022-11-22T08:10:09.048Z,98773.59
2022-11-22T08:11:11.907Z,98778.00
2022-11-22T08:12:14.166Z,98777.50
2022-11-22T08:13:16.416Z,98773.97
2022-11-22T08:14:18.601Z,98778.31
2022-11-22T08:15:20.931Z,98771.56
2022-11-22T08:16:23.121Z,98773.47
2022-11-22T08:17:25.313Z,98775.69
2022-11-22T08:18:27.629Z,98783.88
2022-11-22T08:19:31.396Z,98783.66
2022-11-22T08:20:33.874Z,98786.94
2022-11-22T08:21:36.486Z,98785.88
2022-11-22T08:22:41.284Z,98790.25
2022-11-22T08:23:44.694Z,98785.63
2022-11-22T08:24:46.875Z,98781.59
2022-11-22T08:25:49.134Z,98785.97
2022-11-22T08:26:52.476Z,98783.00
2022-11-22T08:27:54.701Z,98787.38
2022-11-22T08:28:56.937Z,98783.81
2022-11-22T08:29:59.143Z,98789.03
2022-11-22T08:31:04.749Z,98786.06
2022-11-22T08:32:07.482Z,98786.63
2022-11-22T08:33:09.687Z,98780.97
2022-11-22T08:34:11.843Z,98784.50
2022-11-22T08:35:17.313Z,98786.97
2022-11-22T08:36:19.588Z,98791.13
2022-11-22T08:37:21.785Z,98789.00
2022-11-22T08:38:24.314Z,98787.94
2022-11-22T08:39:26.677Z,98793.13
2022-11-22T08:40:29.050Z,98792.88
2022-11-22T08:41:33.608Z,98795.34
2022-11-22T08:42:35.855Z,98795.09
2022-11-22T08:43:38.406Z,98804.94
2022-11-22T08:44:40.599Z,98809.31
2022-11-22T08:45:42.809Z,98801.50
2022-11-22T08:46:45.031Z,98800.91
2022-11-22T08:47:49.160Z,98806.94
2022-11-22T08:48:54.249Z,98811.06
2022-11-22T08:49:56.442Z,98808.91
2022-11-22T08:51:04.431Z,98817.44
2022-11-22T08:52:06.738Z,98811.75
2022-11-22T08:53:09.002Z,98816.47
2022-11-22T08:54:15.619Z,98814.31
2022-11-22T08:55:17.807Z,98807.53
2022-11-22T08:56:20.145Z,98801.84
2022-11-22T08:57:23.139Z,98807.06
2022-11-22T08:58:25.362Z,98812.81
2022-11-22T08:59:27.882Z,98810.69
2022-11-22T09:00:33.570Z,98812.34
2022-11-22T09:01:36.929Z,98816.50
2022-11-22T09:02:39.202Z,98816.25
2022-11-22T09:03:44.880Z,98823.91
2022-11-22T09:04:50.090Z,98820.97
2022-11-22T09:08:40.366Z,98833.97
2022-11-22T09:09:45.954Z,98828.25
2022-11-22T09:10:48.381Z,98834.06
2022-11-22T09:11:50.561Z,98839.00
2022-11-22T09:12:52.735Z,98834.94
2022-11-22T09:13:55.510Z,98836.34
2022-11-22T09:14:57.697Z,98844.06
2022-11-22T09:16:07.802Z,98846.28
2022-11-22T09:17:14.603Z,98843.91
2022-11-22T09:18:19.672Z,98840.66
2022-11-22T09:19:21.881Z,98844.81
2022-11-22T09:20:24.074Z,98847.88
2022-11-22T09:21:26.733Z,98848.19
2022-11-22T09:22:29.005Z,98847.69
2022-11-22T09:23:32.297Z,98848.28
2022-11-22T09:24:34.490Z,98845.84
2022-11-22T09:25:36.695Z,98839.91
2022-11-22T09:26:39.799Z,98849.25
2022-11-22T09:27:41.987Z,98841.41
2022-11-22T09:28:47.390Z,98843.63
2022-11-22T09:29:50.162Z,98848.56
2022-11-22T09:31:01.953Z,98844.28
2022-11-22T09:32:06.461Z,98842.13
2022-11-22T09:33:10.079Z,98843.50
2022-11-22T09:34:12.336Z,98844.44
2022-11-22T09:35:17.311Z,98848.56
2022-11-22T09:36:26.757Z,98854.31
2022-11-22T09:37:28.987Z,98850.00
2022-11-22T09:38:31.910Z,98852.00
2022-11-22T09:39:34.133Z,98851.47
2022-11-22T09:40:36.539Z,98851.00
2022-11-22T09:41:41.712Z,98858.41
2022-11-22T09:43:00.877Z,98853.28
2022-11-22T09:44:38.187Z,98856.91
2022-11-22T09:45:46.529Z,98857.53
2022-11-22T09:46:58.215Z,98854.88
2022-11-22T09:48:33.027Z,98856.59
2022-11-22T09:49:43.700Z,98852.00
2022-11-22T09:50:56.308Z,98858.34
2022-11-22T09:52:17.354Z,98863.66
2022-11-22T09:53:28.017Z,98854.94
2022-11-22T09:54:51.949Z,98854.72
2022-11-22T09:56:00.136Z,98839.44
2022-11-22T09:57:09.312Z,98844.97
2022-11-22T09:58:33.411Z,98848.63
2022-11-22T09:59:42.974Z,98849.75
2022-11-22T10:00:50.624Z,98845.13
2022-11-22T10:02:17.755Z,98846.00
2022-11-22T10:03:40.561Z,98846.38
2022-11-22T10:04:50.970Z,98857.34
2022-11-22T10:05:57.468Z,98853.84
2022-11-22T10:07:03.995Z,98850.31
2022-11-22T10:08:36.694Z,98853.09
2022-11-22T10:09:41.625Z,98866.84
2022-11-22T10:10:44.012Z,98855.13
2022-11-22T10:12:16.273Z,98860.63
2022-11-22T10:13:48.076Z,98856.84
2022-11-22T10:15:06.635Z,98856.09
2022-11-22T10:16:31.140Z,98871.97
2022-11-22T10:17:54.012Z,98865.72
2022-11-22T10:18:58.786Z,98868.78
2022-11-22T10:20:19.632Z,98869.63
2022-11-22T10:21:21.905Z,98874.56
2022-11-22T10:22:29.688Z,98871.88
2022-11-22T10:23:32.979Z,98880.41
2022-11-22T10:24:35.166Z,98880.44
2022-11-22T10:25:45.566Z,98876.63
2022-11-22T10:26:48.040Z,98886.75
2022-11-22T10:28:14.254Z,98876.94
2022-11-22T10:29:27.315Z,98882.69
2022-11-22T10:30:39.489Z,98889.28
2022-11-22T10:31:49.180Z,98885.19
2022-11-22T10:33:41.294Z,98892.66
2022-11-22T10:35:22.469Z,98893.75
2022-11-22T10:36:37.870Z,98886.09
2022-11-22T10:37:58.737Z,98893.78
2022-11-22T10:39:35.200Z,98885.06
2022-11-22T10:41:14.420Z,98893.53
2022-11-22T10:42:22.524Z,98887.28
2022-11-22T10:43:39.311Z,98887.00
2022-11-22T10:44:53.373Z,98878.50
2022-11-22T10:46:44.641Z,98895.53
2022-11-22T10:48:12.194Z,98883.75
2022-11-22T10:49:30.519Z,98867.06
2022-11-22T10:51:01.087Z,98868.44
2022-11-22T10:52:41.367Z,98864.31
2022-11-22T10:54:14.732Z,98862.13
2022-11-22T10:55:25.962Z,98862.13
2022-11-22T10:56:53.456Z,98857.22
2022-11-22T10:58:18.014Z,98859.09
2022-11-22T10:59:28.529Z,98853.91
2022-11-22T11:00:36.781Z,98868.19
2022-11-22T11:01:49.990Z,98859.94
2022-11-22T11:03:12.108Z,98866.25
2022-11-22T11:04:16.596Z,98875.56
2022-11-22T11:05:26.156Z,98878.03
2022-11-22T11:07:11.234Z,98872.81
2022-11-22T11:08:42.233Z,98875.84
2022-11-22T11:11:06.464Z,98870.63
2022-11-22T11:12:23.965Z,98874.19
2022-11-22T11:13:31.953Z,98881.88
2022-11-22T11:14:50.076Z,98881.03
2022-11-22T11:15:56.739Z,98877.47
2022-11-22T11:17:01.137Z,98870.59
2022-11-22T11:18:08.973Z,98875.53
2022-11-22T11:19:11.123Z,98873.31
2022-11-22T11:20:25.219Z,98877.16
2022-11-22T11:21:28.040Z,98873.03
2022-11-22T11:23:06.599Z,98875.47
2022-11-22T11:23:56.150Z,98874.94
2022-11-22T11:25:29.761Z,98871.06
2022-11-22T11:26:35.623Z,98872.44
2022-11-22T11:27:42.261Z,98867.22
2022-11-22T11:28:44.604Z,98864.72
2022-11-22T11:29:53.765Z,98860.59
2022-11-22T11:31:11.009Z,98860.06
2022-11-22T11:32:15.871Z,98862.22
2022-11-22T11:33:23.823Z,98849.34
2022-11-22T11:34:29.440Z,98857.81
2022-11-22T11:35:34.204Z,98856.41
2022-11-22T11:36:38.833Z,98860.28
2022-11-22T11:37:40.996Z,98859.69
2022-11-22T11:38:43.167Z,98851.75
2022-11-22T11:39:48.152Z,98855.03
2022-11-22T11:40:50.428Z,98861.88
2022-11-22T11:41:52.624Z,98855.25
2022-11-22T11:43:16.962Z,98851.66
2022-11-22T11:44:32.388Z,98852.72
2022-11-22T11:45:35.315Z,98862.03
2022-11-22T11:46:40.190Z,98855.16
2022-11-22T11:47:42.489Z,98859.84
2022-11-22T11:48:45.903Z,98859.28
2022-11-22T11:49:51.835Z,98862.53
2022-11-22T11:51:14.399Z,98854.59
2022-11-22T11:52:23.095Z,98847.72
2022-11-22T11:53:26.593Z,98846.06
2022-11-22T11:54:43.897Z,98846.59
2022-11-22T11:55:46.238Z,98853.97
2022-11-22T11:56:51.369Z,98848.78
2022-11-22T11:57:54.079Z,98843.56
2022-11-22T11:58:58.482Z,98851.78
2022-11-22T12:00:02.923Z,98850.13
2022-11-22T12:01:20.536Z,98844.34
2022-11-22T12:02:24.468Z,98836.38
2022-11-22T12:03:27.467Z,98841.06
2022-11-22T12:04:34.816Z,98835.28
2022-11-22T12:05:37.227Z,98830.03
2022-11-22T12:06:39.514Z,98832.78
2022-11-22T12:07:44.966Z,98831.97
2022-11-22T12:08:47.350Z,98833.84
2022-11-22T12:09:52.420Z,98840.41
2022-11-22T12:11:22.141Z,98841.75
2022-11-22T12:12:29.379Z,98842.28
2022-11-22T12:14:12.259Z,98845.03
2022-11-22T12:15:33.221Z,98848.03
2022-11-22T12:16:40.294Z,98846.63
2022-11-22T12:18:11.517Z,98842.25
2022-11-22T12:19:37.039Z,98857.28
2022-11-22T12:21:11.946Z,98844.94
2022-11-22T12:25:47.982Z,98852.25
2022-11-22T12:26:50.314Z,98852.50
2022-11-22T12:27:55.085Z,98848.13
2022-11-22T12:28:59.154Z,98851.66
2022-11-22T12:30:01.520Z,98849.47
2022-11-22T12:32:45.772Z,98847.22
2022-11-22T12:33:54.574Z,98854.63
2022-11-22T12:35:10.506Z,98843.09
2022-11-22T12:36:21.260Z,98848.03
2022-11-22T12:37:29.120Z,98845.56
2022-11-22T12:38:40.537Z,98855.66
2022-11-22T12:39:47.672Z,98850.19
2022-11-22T12:40:54.378Z,98857.00
2022-11-22T12:42:26.048Z,98861.06
2022-11-22T12:43:53.541Z,98855.06
2022-11-22T12:45:19.977Z,98868.16
2022-11-22T12:46:39.656Z,98860.22
2022-11-22T12:47:46.683Z,98863.47
2022-11-22T12:48:23.997Z,98856.03
2022-11-22T12:48:55.141Z,98859.06
2022-11-22T12:50:21.780Z,98854.69
2022-11-22T12:51:30.908Z,98856.84
2022-11-22T12:52:41.847Z,98860.69
2022-11-22T12:53:47.873Z,98862.56
2022-11-22T12:54:57.871Z,98855.47
2022-11-22T12:56:33.621Z,98852.16
2022-11-22T12:57:57.993Z,98848.84
2022-11-22T12:59:13.473Z,98853.25
2022-11-22T13:00:25.171Z,98858.97
2022-11-22T13:01:35.831Z,98860.88
2022-11-22T13:02:58.632Z,98861.97
2022-11-22T13:04:13.597Z,98862.47
2022-11-22T13:05:22.947Z,98859.72
2022-11-22T13:06:33.113Z,98853.72